Lundstrom Heights, Iowa
Current Conditions -  °F | °C
As of 11:15 PM on Friday 28 Nov 2014 (Local Time) from KIKV Reporting Station
Clear Clear  
Wind Chill: 25°   Ceiling: Unl
Heat Index: 30°   Visibility: 10mi
Dew Point: 28°   Wind: 5mph
Humidity: 93%   Direction: 130°SE
Pressure: 29.66"   Gusts: NA
Location:  41.7257°N, 93.588°W
Report Text: KIKV 290515Z AUTO 13004KT 10SM CLR M01/M02 A2966 RMK AO2
Loading
Personal Weather Stations






























Interactive Weather Map New forecast layout! Learn more

10-Day Weather Forecast

Advertisements
Track Severe Weather on mobile